createdAt,value
2022-10-01T00:08:55.375Z,14.90
2022-10-01T00:18:57.821Z,14.70
2022-10-01T00:29:03.639Z,14.70
2022-10-01T00:39:05.584Z,14.60
2022-10-01T00:49:11.462Z,14.60
2022-10-01T00:59:50.642Z,14.60
2022-10-01T01:09:55.218Z,14.50
2022-10-01T01:20:15.404Z,14.50
2022-10-01T01:30:19.502Z,14.50
2022-10-01T01:40:22.130Z,14.50
2022-10-01T01:50:27.606Z,14.40
2022-10-01T02:00:29.705Z,14.40
2022-10-01T02:10:45.012Z,14.30
2022-10-01T02:20:50.441Z,14.30
2022-10-01T02:30:56.014Z,14.20
2022-10-01T02:41:00.585Z,14.10
2022-10-01T02:51:14.653Z,14.00
2022-10-01T03:01:16.790Z,14.00
2022-10-01T03:11:20.310Z,13.80
2022-10-01T03:21:22.334Z,13.70
2022-10-01T03:31:26.284Z,13.60
2022-10-01T03:41:28.463Z,13.50
2022-10-01T03:51:32.646Z,13.50
2022-10-01T04:01:35.317Z,13.40
2022-10-01T04:11:38.919Z,13.30
2022-10-01T04:21:40.924Z,13.20
2022-10-01T04:31:44.355Z,13.10
2022-10-01T04:41:46.423Z,13.10
2022-10-01T04:51:49.937Z,13.00
2022-10-01T05:01:52.332Z,12.90
2022-10-01T05:11:55.773Z,12.80
2022-10-01T05:21:57.779Z,12.90
2022-10-01T05:32:01.699Z,12.80
2022-10-01T05:42:06.559Z,12.80
2022-10-01T05:52:10.259Z,12.80
2022-10-01T06:02:12.294Z,12.80
2022-10-01T06:12:19.696Z,12.70
2022-10-01T06:22:22.006Z,12.80
2022-10-01T06:32:25.520Z,12.80
2022-10-01T06:42:27.568Z,12.80
2022-10-01T06:52:31.072Z,12.90
2022-10-01T07:02:33.126Z,13.00
2022-10-01T07:12:37.217Z,13.10
2022-10-01T07:22:39.285Z,13.30
2022-10-01T07:32:45.227Z,13.40
2022-10-01T07:42:53.099Z,13.60
2022-10-01T07:52:58.830Z,13.80
2022-10-01T08:03:00.924Z,14.10
2022-10-01T08:13:07.722Z,14.30
2022-10-01T08:23:11.815Z,14.50
2022-10-01T08:33:15.675Z,14.80
2022-10-01T08:43:30.306Z,15.10
2022-10-01T08:53:40.447Z,15.30
2022-10-01T09:03:42.528Z,15.60
2022-10-01T09:14:11.838Z,16.50
2022-10-01T09:24:15.438Z,17.50
2022-10-01T09:34:27.929Z,18.60
2022-10-01T09:44:32.275Z,19.80
2022-10-01T09:54:43.105Z,19.40
2022-10-01T10:04:45.178Z,19.60
2022-10-01T10:14:48.743Z,20.90
2022-10-01T10:24:51.343Z,21.70
2022-10-01T10:35:02.627Z,21.90
2022-10-01T10:45:16.958Z,20.60
2022-10-01T10:55:27.917Z,19.10
2022-10-01T11:05:31.979Z,18.60
2022-10-01T11:15:57.315Z,18.30
2022-10-01T11:26:08.905Z,18.10
2022-10-01T11:36:21.393Z,17.70
2022-10-01T11:46:35.097Z,17.90
2022-10-01T11:56:43.386Z,18.00
2022-10-01T12:06:54.843Z,18.00
2022-10-01T12:17:04.548Z,17.90
2022-10-01T12:27:26.380Z,17.90
2022-10-01T12:37:41.783Z,17.60
2022-10-01T12:47:51.504Z,17.70
2022-10-01T12:58:00.741Z,17.80
2022-10-01T13:08:08.305Z,17.80
2022-10-01T13:18:21.252Z,18.00
2022-10-01T13:28:28.935Z,18.30
2022-10-01T13:38:41.744Z,18.20
2022-10-01T13:48:48.599Z,18.30
2022-10-01T13:58:52.099Z,18.60
2022-10-01T14:09:00.318Z,18.70
2022-10-01T14:19:04.528Z,18.70
2022-10-01T14:29:18.174Z,18.70
2022-10-01T14:39:23.456Z,19.30
2022-10-01T14:49:27.118Z,19.30
2022-10-01T14:59:35.868Z,19.20
2022-10-01T15:09:37.848Z,19.20
2022-10-01T15:19:46.104Z,19.60
2022-10-01T15:29:55.872Z,19.50
2022-10-01T15:40:01.030Z,19.50
2022-10-01T15:50:20.742Z,19.50
2022-10-01T16:00:26.529Z,19.70
2022-10-01T16:10:35.194Z,19.30
2022-10-01T16:20:46.590Z,18.90
2022-10-01T16:30:51.298Z,18.70
2022-10-01T16:40:54.871Z,18.50
2022-10-01T16:50:56.815Z,18.30
2022-10-01T17:01:00.495Z,17.90
2022-10-01T17:11:03.612Z,17.50
2022-10-01T17:21:08.953Z,17.30
2022-10-01T17:31:15.611Z,17.10
2022-10-01T17:41:21.194Z,17.00
2022-10-01T17:51:23.247Z,16.80
2022-10-01T18:01:26.957Z,16.60
2022-10-01T18:11:32.692Z,16.30
2022-10-01T18:21:36.111Z,16.10
2022-10-01T18:32:14.681Z,15.90
2022-10-01T18:42:25.108Z,15.80
2022-10-01T18:52:38.025Z,15.60
2022-10-01T19:03:12.947Z,15.50
2022-10-01T19:13:21.878Z,15.50
2022-10-01T19:23:58.586Z,15.50
2022-10-01T19:34:06.327Z,15.40
2022-10-01T19:44:15.229Z,15.40
2022-10-01T19:54:19.115Z,15.40
2022-10-01T20:04:35.168Z,15.40
2022-10-01T20:14:47.209Z,15.40
2022-10-01T20:25:00.376Z,15.40
2022-10-01T20:35:19.319Z,15.40
2022-10-01T20:45:26.562Z,15.30
2022-10-01T20:55:34.964Z,15.30
2022-10-01T21:05:43.082Z,15.20
2022-10-01T21:15:54.790Z,15.20
2022-10-01T21:26:11.677Z,15.10
2022-10-01T21:36:20.941Z,15.20
2022-10-01T21:46:31.612Z,15.20
2022-10-01T21:57:02.254Z,15.20
2022-10-01T22:07:14.583Z,15.10
2022-10-01T22:17:23.337Z,15.20
2022-10-01T22:27:31.966Z,15.20
2022-10-01T22:37:39.376Z,15.20
2022-10-01T22:47:57.886Z,15.20
2022-10-01T22:58:11.790Z,15.10
2022-10-01T23:08:22.961Z,15.00
2022-10-01T23:18:34.274Z,14.80
2022-10-01T23:28:51.545Z,14.70
2022-10-01T23:39:21.925Z,14.60
2022-10-01T23:49:30.329Z,14.50
2022-10-01T23:59:36.537Z,14.40
